Time;durP1;ratioP1;P1;durP2;ratioP2;P2;SDS_P1;SDS_P2;PMS_P1;PMS_P2;Temp;Humidity;BMP_temperature;BMP_pressure;BME280_temperature;BME280_humidity;BME280_pressure;Samples;Min_cycle;Max_cycle;Signal;HPM_P1;HPM_P2
2024/01/12 00:02:02;;;;;;;16.00;14.23;;;21.20;51.00;;;;;;5052111;28;20522;-68
2024/01/12 00:04:32;;;;;;;14.13;11.93;;;21.20;50.90;;;;;;5048987;28;20480;-67
2024/01/12 00:07:00;;;;;;;16.60;13.90;;;21.20;50.90;;;;;;5079028;28;20970;-67
2024/01/12 00:09:28;;;;;;;14.90;12.90;;;21.10;50.90;;;;;;5053400;28;20940;-67
2024/01/12 00:11:56;;;;;;;16.17;13.70;;;21.10;50.90;;;;;;5055204;28;20447;-67
2024/01/12 00:14:25;;;;;;;15.20;13.60;;;21.10;50.90;;;;;;5051470;28;20644;-68
2024/01/12 00:16:53;;;;;;;14.07;12.10;;;21.10;50.90;;;;;;5053665;28;20459;-67
2024/01/12 00:19:22;;;;;;;15.57;13.87;;;21.10;50.90;;;;;;5051107;28;20436;-67
2024/01/12 00:21:52;;;;;;;14.13;12.50;;;21.10;50.90;;;;;;5050826;28;20460;-67
2024/01/12 00:24:21;;;;;;;15.30;13.80;;;21.10;50.90;;;;;;5050361;28;20468;-67
2024/01/12 00:26:49;;;;;;;13.50;12.07;;;21.10;50.90;;;;;;5050644;28;20448;-68
2024/01/12 00:29:18;;;;;;;14.37;12.87;;;21.10;50.90;;;;;;5051563;28;20556;-67
2024/01/12 00:31:46;;;;;;;15.07;13.47;;;21.10;50.90;;;;;;5048831;28;20980;-67
2024/01/12 00:34:14;;;;;;;14.50;12.93;;;21.10;50.90;;;;;;5051587;28;20499;-68
2024/01/12 00:36:43;;;;;;;14.50;12.93;;;21.00;50.90;;;;;;5050171;28;20464;-67
2024/01/12 00:39:12;;;;;;;14.27;12.77;;;21.00;50.90;;;;;;5047447;28;20459;-66
2024/01/12 00:41:40;;;;;;;14.33;12.83;;;21.00;50.90;;;;;;5049147;28;20505;-67
2024/01/12 00:44:09;;;;;;;15.67;12.43;;;21.00;50.80;;;;;;5053995;28;20552;-67
2024/01/12 00:46:37;;;;;;;14.57;13.03;;;21.00;50.90;;;;;;5055572;28;20453;-67
2024/01/12 00:49:05;;;;;;;15.20;13.50;;;21.00;50.90;;;;;;5050759;28;20450;-67
2024/01/12 00:51:34;;;;;;;14.83;13.33;;;21.00;50.90;;;;;;5049218;28;20449;-67
2024/01/12 00:54:03;;;;;;;14.87;13.37;;;21.00;50.90;;;;;;5050551;28;20557;-67
2024/01/12 00:56:32;;;;;;;15.07;13.33;;;21.00;50.90;;;;;;5049187;28;20549;-67
2024/01/12 00:59:01;;;;;;;16.77;12.80;;;21.00;50.90;;;;;;5050659;28;20470;-66
2024/01/12 01:01:29;;;;;;;15.23;13.43;;;21.00;50.80;;;;;;5050682;28;20959;-68
2024/01/12 01:03:57;;;;;;;14.13;12.73;;;21.00;50.90;;;;;;5049040;28;20448;-67
2024/01/12 01:06:25;;;;;;;14.47;12.97;;;21.00;50.80;;;;;;5053514;28;20458;-67
2024/01/12 01:08:54;;;;;;;13.63;12.20;;;20.90;50.90;;;;;;5047749;28;20451;-67
2024/01/12 01:11:22;;;;;;;15.30;13.47;;;20.90;50.80;;;;;;5054974;28;20473;-66
2024/01/12 01:13:52;;;;;;;14.63;12.90;;;20.90;50.80;;;;;;5046275;28;20518;-67
2024/01/12 01:16:21;;;;;;;17.43;13.80;;;20.90;50.80;;;;;;5052561;28;20478;-67
2024/01/12 01:18:50;;;;;;;16.47;13.07;;;20.90;50.80;;;;;;5050360;28;20583;-67
2024/01/12 01:21:18;;;;;;;16.37;13.40;;;20.90;50.80;;;;;;5051069;28;20461;-66
2024/01/12 01:23:46;;;;;;;14.90;12.57;;;20.90;50.80;;;;;;5049270;28;20460;-66
2024/01/12 01:26:15;;;;;;;13.63;12.23;;;20.90;50.80;;;;;;5048970;28;20473;-67
2024/01/12 01:28:43;;;;;;;13.53;12.23;;;20.90;50.80;;;;;;5049698;28;20495;-67
2024/01/12 01:31:13;;;;;;;15.43;12.80;;;20.90;50.80;;;;;;5049664;28;20477;-66
2024/01/12 01:33:41;;;;;;;14.67;13.13;;;20.90;50.80;;;;;;5046467;28;20513;-67
2024/01/12 01:36:09;;;;;;;14.60;13.10;;;20.80;50.80;;;;;;5047310;28;20986;-69
2024/01/12 01:38:37;;;;;;;16.00;12.77;;;20.80;50.80;;;;;;5050306;28;20466;-66
2024/01/12 01:41:06;;;;;;;13.70;12.40;;;20.80;50.80;;;;;;5049695;28;20818;-66
2024/01/12 01:43:34;;;;;;;16.20;14.07;;;20.80;50.80;;;;;;5048129;28;20457;-66
2024/01/12 01:46:04;;;;;;;15.57;13.47;;;20.80;50.80;;;;;;5048696;28;20507;-66
2024/01/12 01:48:34;;;;;;;14.80;13.00;;;20.80;50.80;;;;;;5047747;28;20451;-66
2024/01/12 01:51:04;;;;;;;15.70;14.10;;;20.80;50.70;;;;;;5049722;28;20475;-66
2024/01/12 01:53:32;;;;;;;14.27;12.77;;;20.80;50.70;;;;;;5049534;28;20459;-66
2024/01/12 01:56:02;;;;;;;14.63;13.10;;;20.80;50.70;;;;;;5050394;28;20934;-69
2024/01/12 01:58:34;;;;;;;15.30;13.80;;;20.80;50.70;;;;;;5048232;28;20496;-67
2024/01/12 02:01:03;;;;;;;16.63;13.70;;;20.70;50.70;;;;;;5050051;28;20463;-67
2024/01/12 02:03:34;;;;;;;14.00;12.60;;;20.70;50.70;;;;;;5046174;28;20452;-69
2024/01/12 02:06:02;;;;;;;16.30;13.43;;;20.70;50.70;;;;;;5051263;28;20954;-67
2024/01/12 02:08:31;;;;;;;17.93;15.47;;;20.70;50.60;;;;;;5048937;28;20487;-67
2024/01/12 02:10:59;;;;;;;15.10;13.07;;;20.70;50.70;;;;;;5049493;28;20488;-67
2024/01/12 02:13:27;;;;;;;14.50;13.10;;;20.70;50.70;;;;;;5048183;28;20453;-67
2024/01/12 02:15:56;;;;;;;15.40;13.37;;;20.70;50.70;;;;;;5048073;28;20482;-68
2024/01/12 02:18:24;;;;;;;19.23;14.37;;;20.70;50.70;;;;;;5048658;28;20505;-67
2024/01/12 02:20:57;;;;;;;18.80;15.10;;;20.70;50.70;;;;;;5049658;28;20463;-67
2024/01/12 02:23:26;;;;;;;21.13;15.27;;;20.70;50.70;;;;;;5046783;28;20965;-67
2024/01/12 02:25:54;;;;;;;16.00;13.50;;;20.70;50.70;;;;;;5048360;28;20464;-67
2024/01/12 02:28:23;;;;;;;15.73;14.13;;;20.70;50.70;;;;;;5049003;28;20942;-67
2024/01/12 02:30:52;;;;;;;15.10;13.50;;;20.70;50.70;;;;;;5050097;28;20819;-66
2024/01/12 02:33:20;;;;;;;18.17;14.63;;;20.60;50.70;;;;;;5047066;28;20473;-66
2024/01/12 02:35:48;;;;;;;16.30;14.07;;;20.60;50.70;;;;;;5047956;28;20479;-68
2024/01/12 02:38:17;;;;;;;17.20;12.37;;;20.60;50.70;;;;;;5047447;28;20963;-67
2024/01/12 02:40:46;;;;;;;16.00;13.73;;;20.60;50.70;;;;;;5048423;28;20453;-66
2024/01/12 02:43:14;;;;;;;15.30;13.67;;;20.60;50.70;;;;;;5048952;28;20956;-66
2024/01/12 02:45:42;;;;;;;14.67;13.17;;;20.60;50.70;;;;;;5048243;28;20458;-66
2024/01/12 02:48:10;;;;;;;17.20;14.13;;;20.60;50.70;;;;;;5045627;28;20959;-67
2024/01/12 02:50:39;;;;;;;16.50;14.00;;;20.60;50.70;;;;;;5044993;28;20883;-66
2024/01/12 02:53:07;;;;;;;18.70;14.00;;;20.50;50.70;;;;;;5048972;28;20448;-66
2024/01/12 02:55:37;;;;;;;15.73;13.97;;;20.50;50.80;;;;;;5047708;28;20959;-67
2024/01/12 02:58:05;;;;;;;18.10;14.53;;;20.50;50.80;;;;;;5045209;28;20448;-68
2024/01/12 03:00:33;;;;;;;14.90;13.40;;;20.50;50.80;;;;;;5049539;28;20451;-68
2024/01/12 03:03:01;;;;;;;18.40;13.70;;;20.50;50.80;;;;;;5048633;28;20453;-66
2024/01/12 03:05:30;;;;;;;16.10;13.20;;;20.50;50.80;;;;;;5050129;28;20948;-67
2024/01/12 03:07:58;;;;;;;14.77;13.30;;;20.50;50.80;;;;;;5050037;28;20562;-66
2024/01/12 03:10:26;;;;;;;16.13;14.10;;;20.50;50.90;;;;;;5049062;28;20448;-67
2024/01/12 03:12:56;;;;;;;18.60;14.37;;;20.40;50.90;;;;;;5046253;28;20467;-67
2024/01/12 03:15:24;;;;;;;21.60;13.47;;;20.40;50.90;;;;;;5049214;28;20479;-66
2024/01/12 03:17:53;;;;;;;16.90;14.13;;;20.40;51.00;;;;;;5047436;28;20455;-66
2024/01/12 03:20:21;;;;;;;16.60;13.87;;;20.40;51.00;;;;;;5047409;28;20456;-67
2024/01/12 03:22:49;;;;;;;18.57;13.50;;;20.40;51.00;;;;;;5050726;28;20494;-67
2024/01/12 03:25:17;;;;;;;15.90;13.20;;;20.40;51.00;;;;;;5053346;28;21056;-67
2024/01/12 03:27:46;;;;;;;18.07;14.50;;;20.40;51.00;;;;;;5052435;28;20451;-68
2024/01/12 03:30:16;;;;;;;16.07;13.30;;;20.40;51.00;;;;;;5051034;28;20559;-67
2024/01/12 03:32:44;;;;;;;17.50;14.67;;;20.40;51.00;;;;;;5051962;28;20939;-66
2024/01/12 03:35:13;;;;;;;17.67;13.20;;;20.40;51.00;;;;;;5050654;28;20501;-66
2024/01/12 03:37:41;;;;;;;19.03;15.33;;;20.30;51.00;;;;;;5051981;28;20451;-66
2024/01/12 03:40:11;;;;;;;16.27;13.13;;;20.30;51.00;;;;;;5048552;28;20463;-66
2024/01/12 03:42:40;;;;;;;19.40;14.60;;;20.30;51.10;;;;;;5054109;28;20675;-66
2024/01/12 03:45:10;;;;;;;16.97;13.83;;;20.30;51.10;;;;;;5051274;28;20513;-67
2024/01/12 03:47:40;;;;;;;15.30;13.40;;;20.30;51.10;;;;;;5051561;28;20457;-66
2024/01/12 03:50:10;;;;;;;16.73;14.83;;;20.30;51.10;;;;;;5049506;28;20448;-68
2024/01/12 03:52:38;;;;;;;17.57;14.10;;;20.30;51.10;;;;;;5051036;28;20454;-66
2024/01/12 03:55:07;;;;;;;17.47;14.07;;;20.30;51.10;;;;;;5050410;28;20791;-67
2024/01/12 03:57:35;;;;;;;15.83;13.93;;;20.30;51.10;;;;;;5052842;28;20440;-67
2024/01/12 04:00:04;;;;;;;20.23;15.10;;;20.30;51.10;;;;;;5050966;28;20482;-66
2024/01/12 04:02:33;;;;;;;17.67;15.83;;;20.30;51.10;;;;;;5050228;28;20819;-66
2024/01/12 04:05:04;;;;;;;15.20;12.57;;;20.30;51.10;;;;;;5050991;28;20458;-67
2024/01/12 04:07:32;;;;;;;18.80;14.03;;;20.30;51.10;;;;;;5053300;28;20470;-66
2024/01/12 04:10:01;;;;;;;18.87;14.97;;;20.20;51.10;;;;;;5051241;28;20452;-66
2024/01/12 04:12:29;;;;;;;17.27;15.10;;;20.20;51.10;;;;;;5049139;28;20505;-66
2024/01/12 04:14:57;;;;;;;15.87;13.57;;;20.20;51.10;;;;;;5050658;28;20521;-66
2024/01/12 04:17:25;;;;;;;18.63;14.17;;;20.20;51.10;;;;;;5049301;28;20481;-66
2024/01/12 04:19:55;;;;;;;18.20;13.37;;;20.20;51.10;;;;;;5049858;28;20972;-68
2024/01/12 04:22:25;;;;;;;17.40;13.17;;;20.20;51.10;;;;;;5049445;28;20436;-67
2024/01/12 04:24:53;;;;;;;15.07;13.47;;;20.20;51.10;;;;;;5048637;28;20444;-66
2024/01/12 04:27:21;;;;;;;16.67;13.33;;;20.20;51.20;;;;;;5049974;28;20467;-66
2024/01/12 04:29:49;;;;;;;18.87;13.77;;;20.20;51.20;;;;;;5050048;28;20480;-67
2024/01/12 04:32:18;;;;;;;16.23;13.20;;;20.20;51.20;;;;;;5052476;28;20933;-68
2024/01/12 04:34:46;;;;;;;15.07;13.10;;;20.20;51.10;;;;;;5050733;28;20444;-67
2024/01/12 04:37:14;;;;;;;16.37;14.07;;;20.10;51.10;;;;;;5050479;28;20486;-67
2024/01/12 04:39:44;;;;;;;16.80;13.20;;;20.10;51.10;;;;;;5049019;28;20458;-66
2024/01/12 04:42:12;;;;;;;16.27;12.90;;;20.10;51.10;;;;;;5051376;28;20985;-68
2024/01/12 04:44:42;;;;;;;16.17;12.70;;;20.10;51.10;;;;;;5048550;28;20842;-67
2024/01/12 04:47:10;;;;;;;17.00;14.43;;;20.10;51.10;;;;;;5053695;28;20463;-66
2024/01/12 04:49:38;;;;;;;19.93;14.77;;;20.10;51.10;;;;;;5048971;28;20897;-67
2024/01/12 04:52:07;;;;;;;18.90;15.07;;;20.10;51.10;;;;;;5046715;28;20578;-67
2024/01/12 04:54:35;;;;;;;18.27;13.87;;;20.10;51.10;;;;;;5046868;28;20469;-67
2024/01/12 04:57:05;;;;;;;16.83;14.60;;;20.10;51.10;;;;;;5050689;28;20476;-69
2024/01/12 04:59:33;;;;;;;15.60;13.70;;;20.10;51.00;;;;;;5048894;28;20516;-67
2024/01/12 05:02:02;;;;;;;20.10;15.77;;;20.10;51.10;;;;;;5049528;28;20458;-67
2024/01/12 05:04:30;;;;;;;18.30;14.77;;;20.00;51.10;;;;;;5048562;28;20462;-67
2024/01/12 05:06:58;;;;;;;17.93;12.77;;;20.00;51.10;;;;;;5049862;28;20495;-67
2024/01/12 05:09:27;;;;;;;16.00;13.97;;;20.10;51.00;;;;;;5050022;28;20479;-67
2024/01/12 05:11:55;;;;;;;16.57;14.00;;;20.10;51.00;;;;;;5050858;28;20539;-68
2024/01/12 05:14:25;;;;;;;19.47;15.50;;;20.10;51.00;;;;;;5049603;28;20537;-68
2024/01/12 05:16:53;;;;;;;16.30;14.57;;;20.10;50.90;;;;;;5052605;28;20856;-66
2024/01/12 05:19:21;;;;;;;16.87;12.97;;;20.10;50.80;;;;;;5050117;28;20459;-67
2024/01/12 05:21:50;;;;;;;19.67;15.17;;;20.20;50.70;;;;;;5050152;28;20855;-69
2024/01/12 05:24:18;;;;;;;21.67;14.40;;;20.20;50.60;;;;;;5054120;28;21232;-67
2024/01/12 05:26:46;;;;;;;20.57;15.07;;;20.30;50.40;;;;;;5054907;28;20459;-67
2024/01/12 05:29:15;;;;;;;17.20;15.20;;;20.30;50.30;;;;;;5053569;28;20458;-68
2024/01/12 05:31:45;;;;;;;17.93;13.90;;;20.30;50.20;;;;;;5054436;28;20454;-68
2024/01/12 05:34:13;;;;;;;17.80;13.80;;;20.40;50.10;;;;;;5052773;28;20469;-67
2024/01/12 05:36:42;;;;;;;19.83;15.40;;;20.40;50.00;;;;;;5055521;28;20495;-67
2024/01/12 05:39:11;;;;;;;17.43;13.90;;;20.50;49.90;;;;;;5052446;28;20459;-67
2024/01/12 05:41:39;;;;;;;15.93;14.30;;;20.50;49.90;;;;;;5049470;28;20451;-67
2024/01/12 05:44:08;;;;;;;19.50;14.80;;;20.50;49.80;;;;;;5054603;28;20448;-68
2024/01/12 05:46:37;;;;;;;19.17;15.50;;;20.60;49.70;;;;;;5045219;28;20462;-67
2024/01/12 05:49:08;;;;;;;17.47;13.60;;;20.60;49.70;;;;;;5048704;28;20463;-68
2024/01/12 05:51:36;;;;;;;19.97;15.40;;;20.70;49.60;;;;;;5045705;28;20443;-67
2024/01/12 05:54:04;;;;;;;19.83;15.47;;;20.70;49.60;;;;;;5053368;28;20533;-68
2024/01/12 05:56:33;;;;;;;18.47;14.43;;;20.70;49.50;;;;;;5044407;28;20526;-68
2024/01/12 05:59:01;;;;;;;18.90;15.07;;;20.80;49.60;;;;;;5043919;28;20460;-69
2024/01/12 06:01:30;;;;;;;17.43;14.13;;;20.80;49.70;;;;;;5045309;28;20470;-69
2024/01/12 06:03:59;;;;;;;17.43;14.13;;;20.90;49.90;;;;;;5050388;28;20479;-67
2024/01/12 06:06:29;;;;;;;20.27;14.90;;;20.90;50.00;;;;;;5042055;28;20522;-65
2024/01/12 06:08:57;;;;;;;16.13;14.37;;;20.90;50.20;;;;;;5046855;28;20458;-67
2024/01/12 06:11:25;;;;;;;17.87;13.60;;;21.00;50.20;;;;;;5047595;28;20456;-67
2024/01/12 06:13:54;;;;;;;16.87;14.30;;;21.00;50.30;;;;;;5045331;28;20460;-67
2024/01/12 06:16:22;;;;;;;18.63;14.20;;;21.10;50.30;;;;;;5049640;28;20502;-66
2024/01/12 06:18:50;;;;;;;19.47;13.37;;;21.10;50.30;;;;;;5045523;28;20463;-67
2024/01/12 06:21:19;;;;;;;16.13;13.90;;;21.10;50.30;;;;;;5045060;28;20457;-66
2024/01/12 06:23:48;;;;;;;15.67;13.30;;;21.10;50.40;;;;;;5048969;28;20448;-66
2024/01/12 06:26:17;;;;;;;16.87;13.33;;;21.10;50.40;;;;;;5049833;28;20435;-69
2024/01/12 06:28:45;;;;;;;15.90;13.60;;;21.20;50.40;;;;;;5048102;28;21024;-67
2024/01/12 06:31:14;;;;;;;17.37;13.67;;;21.20;50.40;;;;;;5043146;28;20481;-67
2024/01/12 06:33:42;;;;;;;17.40;14.13;;;21.20;50.40;;;;;;5046489;28;20491;-67
2024/01/12 06:36:11;;;;;;;19.73;14.23;;;21.20;50.40;;;;;;5045344;28;20446;-66
2024/01/12 06:38:39;;;;;;;14.70;12.87;;;21.20;50.40;;;;;;5044376;28;20448;-66
2024/01/12 06:41:08;;;;;;;17.17;12.57;;;21.20;50.40;;;;;;5046345;28;20447;-67
2024/01/12 06:43:37;;;;;;;19.03;14.53;;;21.20;50.40;;;;;;5046214;28;20455;-66
2024/01/12 06:46:06;;;;;;;25.70;14.47;;;21.20;50.40;;;;;;5047130;28;20934;-68
2024/01/12 06:48:34;;;;;;;19.13;15.80;;;21.20;50.40;;;;;;5046136;28;20437;-67
2024/01/12 06:51:02;;;;;;;15.93;13.47;;;21.20;50.30;;;;;;5037568;28;21017;-66
2024/01/12 06:53:31;;;;;;;19.43;14.60;;;21.20;50.20;;;;;;5044145;28;20499;-66
2024/01/12 06:55:59;;;;;;;16.83;14.33;;;21.20;50.10;;;;;;5047125;28;20484;-66
2024/01/12 06:58:29;;;;;;;16.07;12.97;;;21.20;50.20;;;;;;5049421;28;20852;-66
2024/01/12 07:00:58;;;;;;;17.50;13.73;;;21.20;50.20;;;;;;5048356;28;20455;-67
2024/01/12 07:03:27;;;;;;;20.70;15.07;;;21.20;50.30;;;;;;5049383;28;20453;-67
2024/01/12 07:05:55;;;;;;;15.50;12.30;;;21.20;50.30;;;;;;5049256;28;20458;-68
2024/01/12 07:08:26;;;;;;;17.43;13.67;;;21.20;50.40;;;;;;5052619;28;20488;-67
2024/01/12 07:10:54;;;;;;;17.10;14.47;;;21.20;50.40;;;;;;5049520;28;20441;-69
2024/01/12 07:13:22;;;;;;;19.00;14.17;;;21.20;50.40;;;;;;5049131;28;20450;-67
2024/01/12 07:15:52;;;;;;;17.73;14.43;;;21.20;50.50;;;;;;5044333;28;20462;-67
2024/01/12 07:18:20;;;;;;;18.80;13.37;;;21.20;50.80;;;;;;5050433;28;20479;-67
2024/01/12 07:20:49;;;;;;;20.27;14.90;;;21.20;51.10;;;;;;5049476;28;20448;-68
2024/01/12 07:23:17;;;;;;;23.47;16.20;;;21.20;51.30;;;;;;5051882;28;20452;-66
2024/01/12 07:25:45;;;;;;;24.33;15.30;;;21.20;51.40;;;;;;5047515;28;20464;-67
2024/01/12 07:28:15;;;;;;;19.90;15.07;;;21.20;51.40;;;;;;5052549;28;20438;-66
2024/01/12 07:30:43;;;;;;;24.03;13.83;;;21.20;51.40;;;;;;5050680;28;20818;-67
2024/01/12 07:33:13;;;;;;;20.47;14.87;;;21.20;51.40;;;;;;5051363;28;20453;-68
2024/01/12 07:35:41;;;;;;;22.90;13.97;;;21.20;51.40;;;;;;5052918;28;20470;-67
2024/01/12 07:38:10;;;;;;;22.10;15.10;;;21.20;51.40;;;;;;5049580;28;20473;-66
2024/01/12 07:40:38;;;;;;;20.87;14.47;;;21.20;51.30;;;;;;5053022;28;20440;-67
2024/01/12 07:43:06;;;;;;;19.23;13.87;;;21.20;51.30;;;;;;5048010;28;20465;-67
2024/01/12 07:45:35;;;;;;;19.03;15.10;;;21.20;51.10;;;;;;5051396;28;20459;-67
2024/01/12 07:48:04;;;;;;;19.70;14.83;;;21.20;51.00;;;;;;5053301;28;20497;-67
2024/01/12 07:50:35;;;;;;;21.43;14.73;;;21.20;50.90;;;;;;5052395;28;20454;-66
2024/01/12 07:53:03;;;;;;;18.23;14.37;;;21.20;50.70;;;;;;5048124;28;20438;-61
2024/01/12 07:55:32;;;;;;;20.90;14.70;;;21.20;50.60;;;;;;5045646;28;21021;-62
2024/01/12 07:58:00;;;;;;;17.40;14.10;;;21.20;51.00;;;;;;5047171;28;20557;-61
2024/01/12 08:00:29;;;;;;;19.20;14.77;;;21.20;51.60;;;;;;5046402;28;20457;-62
2024/01/12 08:02:57;;;;;;;19.17;15.37;;;21.20;52.00;;;;;;5051111;28;20471;-62
2024/01/12 08:05:26;;;;;;;21.27;14.40;;;21.20;52.00;;;;;;5053921;28;20458;-62
2024/01/12 08:07:59;;;;;;;18.60;14.30;;;21.20;52.30;;;;;;5050141;28;21009;-62
2024/01/12 08:10:27;;;;;;;19.53;13.80;;;21.20;52.30;;;;;;5054100;28;20470;-63
2024/01/12 08:12:56;;;;;;;20.13;14.53;;;21.20;52.20;;;;;;5051800;28;20510;-62
2024/01/12 08:15:24;;;;;;;21.57;15.80;;;21.20;52.00;;;;;;5051650;28;20522;-62
2024/01/12 08:17:53;;;;;;;22.53;16.00;;;21.20;51.90;;;;;;5051819;28;20483;-62
2024/01/12 08:20:21;;;;;;;18.00;15.77;;;21.20;51.80;;;;;;5051326;28;20556;-61
2024/01/12 08:22:49;;;;;;;21.63;14.67;;;21.20;51.60;;;;;;5048572;28;20453;-62
2024/01/12 08:25:19;;;;;;;20.50;16.23;;;21.20;51.40;;;;;;5051285;28;20461;-62
2024/01/12 08:27:47;;;;;;;22.80;15.90;;;21.20;51.20;;;;;;5050689;28;20452;-63
2024/01/12 08:30:16;;;;;;;20.27;16.43;;;21.20;51.10;;;;;;5052344;28;20444;-62
2024/01/12 08:32:44;;;;;;;21.43;14.70;;;21.20;51.00;;;;;;5046292;28;20458;-62
2024/01/12 08:35:13;;;;;;;22.00;15.70;;;21.20;51.00;;;;;;5051238;28;20473;-62
2024/01/12 08:37:41;;;;;;;24.30;16.37;;;21.20;50.80;;;;;;5051056;28;20964;-63
2024/01/12 08:40:10;;;;;;;21.10;15.90;;;21.20;50.70;;;;;;5050395;28;20445;-63
2024/01/12 08:42:40;;;;;;;18.27;15.47;;;21.20;50.60;;;;;;5046988;28;20459;-62
2024/01/12 08:45:09;;;;;;;28.40;17.50;;;21.20;50.60;;;;;;5046469;28;20465;-62
2024/01/12 08:47:37;;;;;;;19.27;15.13;;;21.20;50.40;;;;;;5047032;28;20459;-63
2024/01/12 08:50:06;;;;;;;23.90;18.20;;;21.20;50.20;;;;;;5050707;28;20446;-63
2024/01/12 08:52:35;;;;;;;22.57;16.53;;;21.20;49.90;;;;;;5045692;28;20432;-63
2024/01/12 08:55:07;;;;;;;20.70;15.80;;;21.20;49.70;;;;;;5049950;28;20442;-62
2024/01/12 08:57:36;;;;;;;18.30;15.30;;;21.20;49.40;;;;;;5050044;28;20455;-62
2024/01/12 09:00:09;;;;;;;22.73;17.13;;;21.20;49.30;;;;;;5046246;28;20454;-62
2024/01/12 09:02:38;;;;;;;20.40;16.10;;;21.20;49.10;;;;;;5048928;28;20440;-62
2024/01/12 09:05:08;;;;;;;20.10;16.33;;;21.20;49.00;;;;;;5047212;28;20983;-63
2024/01/12 09:07:37;;;;;;;20.47;16.00;;;21.20;48.90;;;;;;5043682;28;20889;-65
2024/01/12 09:10:07;;;;;;;23.60;17.43;;;21.20;48.70;;;;;;5054271;28;20793;-66
2024/01/12 09:12:35;;;;;;;22.20;16.57;;;21.10;48.80;;;;;;5050771;28;20445;-66
2024/01/12 09:15:07;;;;;;;21.90;16.83;;;21.20;49.00;;;;;;5052031;28;20441;-64
2024/01/12 09:17:36;;;;;;;18.97;16.00;;;21.20;49.00;;;;;;5049317;28;20573;-67
2024/01/12 09:20:07;;;;;;;22.70;17.77;;;21.20;49.00;;;;;;5045868;28;20508;-65
2024/01/12 09:22:36;;;;;;;22.40;17.77;;;21.20;49.00;;;;;;5050871;28;20455;-66
2024/01/12 09:25:05;;;;;;;23.47;18.37;;;21.20;48.90;;;;;;5051076;28;20454;-63
2024/01/12 09:27:33;;;;;;;23.97;17.37;;;21.30;48.80;;;;;;5050664;28;20465;-64
2024/01/12 09:30:01;;;;;;;24.67;18.57;;;21.20;48.80;;;;;;5050453;28;20534;-63
2024/01/12 09:32:31;;;;;;;19.40;16.20;;;21.30;48.70;;;;;;5048056;28;20541;-66
2024/01/12 09:35:04;;;;;;;21.50;17.47;;;21.30;48.60;;;;;;5049395;28;20931;-67
2024/01/12 09:37:33;;;;;;;23.20;18.70;;;21.30;48.50;;;;;;5044984;28;20442;-64
2024/01/12 09:40:01;;;;;;;26.60;18.50;;;21.30;48.40;;;;;;5050106;28;20465;-64
2024/01/12 09:42:33;;;;;;;26.80;18.57;;;21.30;48.30;;;;;;5050106;28;20455;-65
2024/01/12 09:45:01;;;;;;;22.70;17.90;;;21.40;48.20;;;;;;5045210;28;22503;-65
2024/01/12 09:47:38;;;;;;;23.93;19.10;;;21.40;48.10;;;;;;5047984;28;20986;-64
2024/01/12 09:50:09;;;;;;;27.73;19.33;;;21.40;48.00;;;;;;5049548;28;20495;-65
2024/01/12 09:52:37;;;;;;;22.37;18.00;;;21.40;48.00;;;;;;5050573;28;20460;-65
2024/01/12 09:55:07;;;;;;;28.17;21.27;;;21.40;47.90;;;;;;5046369;28;20461;-65
2024/01/12 09:57:36;;;;;;;23.93;18.60;;;21.40;47.80;;;;;;5049202;28;20453;-66
2024/01/12 10:00:06;;;;;;;25.97;19.77;;;21.40;47.70;;;;;;5049212;28;20473;-64
2024/01/12 10:02:35;;;;;;;24.73;18.67;;;21.40;47.60;;;;;;5042747;28;20465;-65
2024/01/12 10:05:05;;;;;;;26.60;20.17;;;21.40;47.60;;;;;;5046054;28;20454;-65
2024/01/12 10:07:34;;;;;;;23.00;18.67;;;21.40;47.50;;;;;;5054000;28;20485;-65
2024/01/12 10:10:03;;;;;;;25.47;18.50;;;21.50;47.50;;;;;;5049084;28;20539;-64
2024/01/12 10:12:31;;;;;;;29.83;20.60;;;21.50;47.40;;;;;;5050008;28;20513;-64
2024/01/12 10:15:01;;;;;;;28.20;19.47;;;21.50;47.20;;;;;;5046360;28;20445;-64
2024/01/12 10:17:31;;;;;;;25.10;20.23;;;21.50;47.20;;;;;;5048077;28;20474;-65
2024/01/12 10:20:00;;;;;;;28.20;20.70;;;21.50;47.20;;;;;;5048877;28;20550;-63
2024/01/12 10:22:31;;;;;;;21.43;17.63;;;21.50;47.20;;;;;;5049927;28;20442;-64
2024/01/12 10:25:00;;;;;;;25.57;19.97;;;21.50;47.10;;;;;;5049871;28;20937;-65
2024/01/12 10:27:29;;;;;;;24.53;18.97;;;21.50;47.10;;;;;;5050184;28;20449;-65
2024/01/12 10:29:58;;;;;;;23.80;18.00;;;21.50;47.00;;;;;;5049841;28;20537;-66
2024/01/12 10:32:27;;;;;;;24.03;18.67;;;21.50;46.90;;;;;;5050967;28;20475;-66
2024/01/12 10:34:56;;;;;;;24.37;20.03;;;21.50;46.90;;;;;;5053551;28;20544;-64
2024/01/12 10:37:24;;;;;;;25.63;20.10;;;21.50;46.90;;;;;;5054483;28;20536;-65
2024/01/12 10:39:58;;;;;;;22.60;19.83;;;21.50;46.90;;;;;;5053960;28;20512;-63
2024/01/12 10:42:28;;;;;;;22.97;18.97;;;21.50;46.80;;;;;;5049900;28;20874;-64
2024/01/12 10:45:00;;;;;;;28.00;21.47;;;21.50;46.80;;;;;;5054106;28;20457;-64
2024/01/12 10:47:33;;;;;;;26.90;20.70;;;21.50;46.80;;;;;;5053908;28;20547;-64
2024/01/12 10:50:06;;;;;;;22.20;18.70;;;21.50;46.80;;;;;;5050085;28;20444;-64
2024/01/12 10:52:47;;;;;;;26.80;18.40;;;21.50;46.80;;;;;;5053001;28;20501;-66
2024/01/12 10:55:22;;;;;;;23.07;18.17;;;21.50;46.70;;;;;;5054821;28;20479;-65
2024/01/12 10:57:53;;;;;;;23.77;18.77;;;21.50;46.60;;;;;;5054108;28;20452;-62
2024/01/12 11:00:22;;;;;;;25.93;20.07;;;21.50;46.60;;;;;;5053835;28;20815;-61
2024/01/12 11:02:51;;;;;;;26.57;19.53;;;21.50;46.70;;;;;;5051901;28;20460;-62
2024/01/12 11:05:21;;;;;;;21.67;17.63;;;21.50;46.70;;;;;;5050548;28;20917;-62
2024/01/12 11:07:50;;;;;;;28.07;19.87;;;21.50;46.60;;;;;;5052119;28;20571;-62
2024/01/12 11:10:21;;;;;;;24.37;18.73;;;21.50;46.60;;;;;;5053883;28;20446;-62
2024/01/12 11:12:50;;;;;;;32.13;19.43;;;21.50;46.50;;;;;;5051221;28;20442;-62
2024/01/12 11:15:22;;;;;;;23.20;18.07;;;21.40;46.40;;;;;;5053398;28;20520;-61
2024/01/12 11:17:51;;;;;;;25.40;19.90;;;21.40;46.40;;;;;;5052927;28;20549;-62
2024/01/12 11:20:21;;;;;;;25.50;20.70;;;21.40;46.40;;;;;;5050594;28;20476;-62
2024/01/12 11:22:51;;;;;;;26.60;20.70;;;21.40;46.30;;;;;;5052783;28;21058;-62
2024/01/12 11:25:21;;;;;;;25.60;18.77;;;21.40;46.30;;;;;;5049623;28;20500;-62
2024/01/12 11:27:51;;;;;;;24.17;19.43;;;21.40;46.20;;;;;;5051227;28;20445;-62
2024/01/12 11:30:20;;;;;;;22.60;20.17;;;21.40;46.10;;;;;;5049050;28;20449;-61
2024/01/12 11:33:00;;;;;;;26.23;19.67;;;21.40;46.10;;;;;;5056776;28;20544;-62
2024/01/12 11:35:31;;;;;;;24.00;19.50;;;21.40;46.10;;;;;;5053692;28;21295;-62
2024/01/12 11:38:01;;;;;;;21.30;17.60;;;21.40;46.10;;;;;;5052192;28;20793;-62
2024/01/12 11:40:31;;;;;;;25.90;19.70;;;21.40;46.10;;;;;;5046035;28;20483;-61
2024/01/12 11:43:02;;;;;;;28.67;20.73;;;21.40;46.10;;;;;;5050984;28;20831;-62
2024/01/12 11:45:32;;;;;;;26.23;21.23;;;21.40;46.10;;;;;;5050540;28;20663;-61
2024/01/12 11:48:03;;;;;;;21.63;17.70;;;21.40;46.10;;;;;;5040577;28;20534;-64
2024/01/12 11:50:32;;;;;;;21.53;18.33;;;21.40;46.30;;;;;;5043744;28;20481;-61
2024/01/12 11:53:02;;;;;;;21.30;17.50;;;21.40;46.60;;;;;;5038485;28;20459;-61
2024/01/12 11:55:32;;;;;;;23.10;16.90;;;21.40;46.80;;;;;;5043990;28;20473;-62
2024/01/12 11:58:01;;;;;;;19.60;16.67;;;21.40;47.00;;;;;;5044296;28;20458;-61
2024/01/12 12:00:29;;;;;;;28.00;18.33;;;21.40;47.10;;;;;;5046952;28;21095;-62
2024/01/12 12:02:57;;;;;;;22.13;16.20;;;21.40;47.20;;;;;;5053443;28;20445;-61
2024/01/12 12:05:28;;;;;;;21.10;17.17;;;21.40;47.30;;;;;;5049799;28;20450;-61
2024/01/12 12:07:57;;;;;;;19.93;16.70;;;21.40;47.40;;;;;;5052252;28;20495;-61
2024/01/12 12:10:25;;;;;;;28.77;19.80;;;21.40;47.50;;;;;;5052367;28;20448;-62
2024/01/12 12:13:11;;;;;;;28.77;21.70;;;21.40;47.60;;;;;;5052375;28;20452;-61
2024/01/12 12:15:39;;;;;;;26.57;20.00;;;21.40;47.40;;;;;;5050477;28;20797;-61
2024/01/12 12:18:08;;;;;;;26.23;20.07;;;21.40;47.30;;;;;;5053319;28;20469;-62
2024/01/12 12:20:37;;;;;;;30.87;20.37;;;21.40;47.30;;;;;;5048765;28;20821;-61
2024/01/12 12:23:07;;;;;;;23.47;19.10;;;21.40;47.30;;;;;;5049265;28;20464;-61
2024/01/12 12:25:35;;;;;;;24.20;19.10;;;21.40;47.50;;;;;;5049490;28;20453;-62
2024/01/12 12:28:04;;;;;;;26.70;19.60;;;21.30;47.60;;;;;;5054963;28;20515;-62
2024/01/12 12:30:35;;;;;;;25.70;19.33;;;21.30;47.70;;;;;;5049119;28;20442;-61
2024/01/12 12:33:04;;;;;;;22.10;17.60;;;21.30;47.80;;;;;;5049341;28;20449;-61
2024/01/12 12:35:34;;;;;;;26.87;18.10;;;21.30;47.80;;;;;;5048179;28;20463;-61
2024/01/12 12:38:02;;;;;;;22.40;17.63;;;21.30;47.80;;;;;;5037013;28;20458;-61